createdAt,value
2023-04-13T00:00:12.526Z,8.60
2023-04-13T00:02:41.035Z,8.60
2023-04-13T00:05:13.402Z,8.60
2023-04-13T00:07:44.637Z,8.60
2023-04-13T00:10:13.058Z,8.60
2023-04-13T00:12:42.370Z,8.60
2023-04-13T00:15:16.440Z,8.60
2023-04-13T00:17:44.963Z,8.50
2023-04-13T00:20:16.133Z,8.50
2023-04-13T00:22:44.630Z,8.50
2023-04-13T00:25:13.626Z,8.40
2023-04-13T00:27:42.443Z,8.40
2023-04-13T00:30:11.250Z,8.40
2023-04-13T00:32:40.475Z,8.40
2023-04-13T00:35:08.713Z,8.40
2023-04-13T00:37:37.043Z,8.40
2023-04-13T00:40:07.479Z,8.40
2023-04-13T00:42:35.592Z,8.40
2023-04-13T00:45:07.005Z,8.40
2023-04-13T00:47:35.367Z,8.30
2023-04-13T00:50:03.875Z,8.30
2023-04-13T00:52:31.967Z,8.30
2023-04-13T00:55:00.025Z,8.30
2023-04-13T00:57:28.542Z,8.30
2023-04-13T00:59:57.279Z,8.20
2023-04-13T01:02:26.045Z,8.20
2023-04-13T01:04:56.186Z,8.20
2023-04-13T01:07:31.455Z,8.10
2023-04-13T01:10:02.977Z,8.10
2023-04-13T01:12:40.255Z,8.10
2023-04-13T01:15:14.081Z,8.10
2023-04-13T01:17:45.810Z,8.10
2023-04-13T01:20:14.819Z,8.10
2023-04-13T01:22:47.436Z,8.10
2023-04-13T01:25:23.652Z,8.10
2023-04-13T01:28:01.051Z,8.10
2023-04-13T01:30:32.811Z,8.10
2023-04-13T01:33:03.465Z,8.00
2023-04-13T01:35:33.423Z,7.90
2023-04-13T01:38:01.837Z,7.90
2023-04-13T01:40:32.208Z,7.90
2023-04-13T01:43:00.321Z,7.90
2023-04-13T01:45:41.666Z,7.90
2023-04-13T01:48:23.338Z,7.90
2023-04-13T01:51:20.997Z,7.90
2023-04-13T01:54:03.035Z,7.90
2023-04-13T01:56:31.414Z,7.80
2023-04-13T01:59:03.572Z,7.80
2023-04-13T02:01:31.860Z,7.80
2023-04-13T02:04:00.712Z,7.70
2023-04-13T02:06:39.852Z,7.70
2023-04-13T02:09:09.405Z,7.70
2023-04-13T02:11:38.027Z,7.60
2023-04-13T02:14:07.348Z,7.60
2023-04-13T02:16:36.253Z,7.50
2023-04-13T02:19:04.320Z,7.50
2023-04-13T02:21:32.438Z,7.50
2023-04-13T02:24:00.667Z,7.50
2023-04-13T02:26:29.759Z,7.50
2023-04-13T02:28:58.290Z,7.50
2023-04-13T02:31:26.312Z,7.50
2023-04-13T02:33:54.979Z,7.50
2023-04-13T02:36:23.804Z,7.50
2023-04-13T02:39:02.818Z,7.50
2023-04-13T02:41:33.649Z,7.50
2023-04-13T02:44:01.972Z,7.50
2023-04-13T02:46:36.216Z,7.40
2023-04-13T02:49:12.858Z,7.40
2023-04-13T02:51:50.457Z,7.30
2023-04-13T02:54:24.467Z,7.30
2023-04-13T02:56:55.228Z,7.30
2023-04-13T02:59:23.917Z,7.30
2023-04-13T03:01:52.020Z,7.30
2023-04-13T03:04:23.727Z,7.30
2023-04-13T03:06:51.945Z,7.30
2023-04-13T03:09:20.082Z,7.30
2023-04-13T03:11:53.521Z,7.30
2023-04-13T03:14:24.352Z,7.30
2023-04-13T03:17:00.422Z,7.20
2023-04-13T03:19:37.314Z,7.20
2023-04-13T03:22:06.268Z,7.20
2023-04-13T03:24:38.605Z,7.20
2023-04-13T03:27:09.680Z,7.10
2023-04-13T03:29:44.214Z,7.10
2023-04-13T03:32:19.935Z,7.00
2023-04-13T03:34:54.973Z,6.90
2023-04-13T03:37:23.064Z,6.90
2023-04-13T03:39:52.395Z,6.80
2023-04-13T03:42:24.234Z,6.80
2023-04-13T03:44:57.824Z,6.80
2023-04-13T03:47:26.107Z,6.90
2023-04-13T03:49:54.305Z,6.90
2023-04-13T03:52:22.889Z,6.90
2023-04-13T03:54:57.883Z,6.90
2023-04-13T03:57:29.118Z,6.80
2023-04-13T03:59:58.424Z,6.80
2023-04-13T04:02:42.736Z,6.80
2023-04-13T04:05:17.663Z,6.90
2023-04-13T04:07:49.865Z,6.80
2023-04-13T04:10:19.152Z,6.80
2023-04-13T04:12:50.061Z,6.80
2023-04-13T04:15:18.132Z,6.80
2023-04-13T04:17:47.931Z,6.70
2023-04-13T04:20:16.183Z,6.70
2023-04-13T04:22:46.012Z,6.70
2023-04-13T04:25:23.206Z,6.60
2023-04-13T04:27:53.720Z,6.60
2023-04-13T04:30:23.395Z,6.50
2023-04-13T04:32:56.002Z,6.40
2023-04-13T04:35:36.841Z,6.40
2023-04-13T04:38:09.594Z,6.30
2023-04-13T04:40:39.304Z,6.30
2023-04-13T04:43:08.244Z,6.30
2023-04-13T04:45:45.399Z,6.40
2023-04-13T04:48:16.838Z,6.40
2023-04-13T04:50:47.621Z,6.50
2023-04-13T04:53:20.507Z,6.50
2023-04-13T04:55:49.060Z,6.60
2023-04-13T04:58:28.980Z,6.60
2023-04-13T05:00:58.360Z,6.60
2023-04-13T05:03:27.062Z,6.60
2023-04-13T05:06:06.360Z,6.70
2023-04-13T05:08:35.212Z,6.70
2023-04-13T05:11:07.352Z,6.70
2023-04-13T05:13:36.048Z,6.70
2023-04-13T05:16:17.518Z,6.70
2023-04-13T05:18:46.936Z,6.70
2023-04-13T05:21:33.681Z,6.70
2023-04-13T05:24:02.953Z,6.70
2023-04-13T05:26:32.145Z,6.70
2023-04-13T05:29:01.592Z,6.70
2023-04-13T05:31:34.687Z,6.70
2023-04-13T05:34:04.161Z,6.80
2023-04-13T05:36:33.595Z,6.80
2023-04-13T05:39:06.354Z,6.90
2023-04-13T05:41:35.275Z,6.90
2023-04-13T05:44:03.996Z,7.00
2023-04-13T05:46:34.186Z,7.10
2023-04-13T05:49:09.372Z,7.20
2023-04-13T05:51:37.415Z,7.20
2023-04-13T05:54:05.676Z,7.30
2023-04-13T05:56:35.578Z,7.30
2023-04-13T05:59:05.506Z,7.30
2023-04-13T06:01:33.906Z,7.30
2023-04-13T06:04:04.035Z,7.30
2023-04-13T06:06:33.783Z,7.40
2023-04-13T06:09:01.991Z,7.50
2023-04-13T06:11:30.157Z,7.60
2023-04-13T06:14:00.598Z,7.60
2023-04-13T06:16:39.188Z,7.70
2023-04-13T06:19:09.550Z,7.70
2023-04-13T06:21:40.687Z,7.70
2023-04-13T06:24:09.202Z,7.70
2023-04-13T06:26:39.057Z,7.70
2023-04-13T06:29:13.474Z,7.80
2023-04-13T06:31:56.440Z,8.00
2023-04-13T06:34:28.415Z,8.10
2023-04-13T06:36:56.681Z,8.20
2023-04-13T06:39:29.805Z,8.30
2023-04-13T06:42:02.841Z,8.50
2023-04-13T06:44:52.757Z,8.70
2023-04-13T06:47:22.310Z,8.80
2023-04-13T06:49:50.578Z,9.00
2023-04-13T06:52:20.379Z,9.00
2023-04-13T06:54:49.847Z,9.00
2023-04-13T06:57:28.220Z,8.90
2023-04-13T06:59:56.967Z,8.80
2023-04-13T07:02:25.210Z,8.80
2023-04-13T07:04:54.591Z,8.80
2023-04-13T07:07:27.410Z,8.90
2023-04-13T07:09:58.837Z,8.90
2023-04-13T07:12:29.434Z,9.00
2023-04-13T07:14:57.613Z,9.00
2023-04-13T07:17:26.151Z,9.00
2023-04-13T07:19:54.220Z,9.10
2023-04-13T07:22:22.300Z,9.30
2023-04-13T07:24:53.053Z,9.30
2023-04-13T07:27:22.281Z,9.50
2023-04-13T07:29:53.796Z,9.50
2023-04-13T07:32:30.275Z,9.40
2023-04-13T07:35:02.699Z,9.30
2023-04-13T07:37:34.506Z,9.20
2023-04-13T07:40:02.686Z,9.30
2023-04-13T07:42:33.592Z,9.30
2023-04-13T07:45:04.873Z,9.10
2023-04-13T07:47:33.914Z,9.10
2023-04-13T07:50:08.340Z,9.00
2023-04-13T07:52:37.650Z,9.10
2023-04-13T07:55:06.297Z,9.10
2023-04-13T07:57:38.017Z,9.00
2023-04-13T08:00:13.612Z,9.00
2023-04-13T08:02:48.975Z,9.10
2023-04-13T08:05:21.893Z,9.00
2023-04-13T08:07:51.184Z,8.90
2023-04-13T08:10:19.244Z,9.00
2023-04-13T08:12:47.921Z,9.10
2023-04-13T08:15:22.323Z,9.20
2023-04-13T08:17:54.449Z,9.30
2023-04-13T08:20:24.119Z,9.50
2023-04-13T08:22:54.166Z,9.50
2023-04-13T08:25:22.698Z,9.50
2023-04-13T08:27:51.855Z,9.50
2023-04-13T08:30:20.005Z,9.40
2023-04-13T08:33:02.377Z,9.30
2023-04-13T08:35:31.595Z,9.10
2023-04-13T08:38:03.863Z,9.10
2023-04-13T08:40:38.242Z,9.20
2023-04-13T08:43:08.858Z,9.20
2023-04-13T08:45:41.984Z,9.40
2023-04-13T08:48:14.637Z,9.50
2023-04-13T08:50:44.845Z,9.70
2023-04-13T08:53:15.627Z,10.10
2023-04-13T08:55:48.112Z,10.80
2023-04-13T08:58:21.083Z,11.10
2023-04-13T09:00:51.258Z,11.00
2023-04-13T09:03:25.545Z,11.10
2023-04-13T09:05:58.407Z,11.10
2023-04-13T09:08:27.848Z,11.20
2023-04-13T09:10:58.451Z,11.30
2023-04-13T09:13:27.704Z,11.40
2023-04-13T09:15:56.177Z,11.60
2023-04-13T09:18:30.759Z,11.50
2023-04-13T09:21:05.708Z,11.20
2023-04-13T09:23:34.013Z,10.70
2023-04-13T09:26:20.143Z,10.50
2023-04-13T09:28:55.551Z,10.40
2023-04-13T09:31:24.897Z,10.30
2023-04-13T09:33:53.826Z,10.40
2023-04-13T09:36:23.035Z,10.30
2023-04-13T09:38:55.017Z,10.30
2023-04-13T09:41:38.971Z,10.30
2023-04-13T09:44:20.049Z,10.40
2023-04-13T09:47:03.206Z,10.30
2023-04-13T09:49:43.308Z,10.30
2023-04-13T09:52:24.672Z,10.30
2023-04-13T09:54:54.196Z,10.20
2023-04-13T09:57:27.006Z,10.20
2023-04-13T09:59:55.872Z,10.30
2023-04-13T10:02:24.314Z,10.50
2023-04-13T10:04:52.993Z,10.80
2023-04-13T10:07:24.446Z,11.10
2023-04-13T10:09:54.285Z,11.10
2023-04-13T10:12:22.876Z,10.90
2023-04-13T10:14:55.657Z,10.70
2023-04-13T10:17:38.772Z,10.70
2023-04-13T10:20:12.818Z,10.60
2023-04-13T10:22:50.055Z,10.50
2023-04-13T10:25:31.411Z,10.50
2023-04-13T10:28:01.090Z,10.30
2023-04-13T10:30:29.650Z,10.40
2023-04-13T10:33:06.822Z,10.50
2023-04-13T10:35:36.642Z,10.70
2023-04-13T10:38:05.328Z,11.10
2023-04-13T10:40:46.556Z,11.20
2023-04-13T10:43:25.593Z,11.40
2023-04-13T10:46:05.760Z,11.30
2023-04-13T10:48:34.360Z,11.10
2023-04-13T10:51:02.865Z,11.10
2023-04-13T10:53:35.431Z,11.10
2023-04-13T10:56:06.956Z,11.20
2023-04-13T10:58:35.800Z,11.30
2023-04-13T11:01:05.111Z,11.20
2023-04-13T11:03:33.777Z,11.00
2023-04-13T11:06:02.229Z,11.10
2023-04-13T11:08:34.768Z,11.50
2023-04-13T11:11:04.266Z,12.00
2023-04-13T11:13:33.321Z,12.40
2023-04-13T11:16:05.713Z,12.90
2023-04-13T11:18:34.183Z,13.40
2023-04-13T11:21:07.938Z,13.30
2023-04-13T11:23:37.444Z,13.00
2023-04-13T11:26:06.033Z,12.60
2023-04-13T11:28:47.570Z,12.00
2023-04-13T11:31:16.057Z,12.00
2023-04-13T11:33:50.528Z,11.70
2023-04-13T11:36:21.224Z,11.60
2023-04-13T11:38:51.503Z,11.10
2023-04-13T11:41:19.752Z,10.50
2023-04-13T11:43:50.269Z,10.30
2023-04-13T11:46:26.369Z,10.10
2023-04-13T11:48:54.652Z,10.00
2023-04-13T11:51:23.545Z,10.00
2023-04-13T11:53:52.698Z,10.00
2023-04-13T11:56:22.213Z,9.90
2023-04-13T11:58:54.716Z,9.90
2023-04-13T12:01:26.914Z,10.20
2023-04-13T12:06:54.134Z,11.80
2023-04-13T12:12:24.708Z,12.50
2023-04-13T12:19:46.676Z,12.10
2023-04-13T12:22:15.242Z,12.10
2023-04-13T12:24:43.715Z,12.10
2023-04-13T12:27:18.513Z,12.00
2023-04-13T12:29:50.238Z,12.00
2023-04-13T12:32:18.559Z,11.90
2023-04-13T12:34:46.636Z,11.80
2023-04-13T12:37:14.741Z,11.70
2023-04-13T12:39:43.421Z,11.50
2023-04-13T12:42:14.645Z,11.50
2023-04-13T12:44:42.758Z,11.50
2023-04-13T12:47:10.767Z,11.40
2023-04-13T12:49:41.358Z,11.20
2023-04-13T12:52:09.667Z,11.20
2023-04-13T12:54:41.090Z,11.10
2023-04-13T12:57:21.862Z,11.10
2023-04-13T12:59:51.150Z,11.10
2023-04-13T13:02:19.832Z,11.10
2023-04-13T13:04:49.179Z,11.00
2023-04-13T13:07:17.886Z,11.00
2023-04-13T13:09:46.341Z,11.20
2023-04-13T13:12:14.575Z,11.20
2023-04-13T13:14:42.697Z,11.30
2023-04-13T13:17:14.826Z,11.40
2023-04-13T13:19:42.880Z,11.50
2023-04-13T13:22:16.758Z,11.70
2023-04-13T13:24:48.717Z,11.90
2023-04-13T13:27:48.504Z,11.80
2023-04-13T13:30:09.499Z,11.80
2023-04-13T13:32:37.992Z,11.70
2023-04-13T13:35:10.698Z,11.50
2023-04-13T13:37:38.825Z,11.60
2023-04-13T13:40:14.063Z,11.40
2023-04-13T13:42:52.465Z,11.20
2023-04-13T13:45:24.031Z,11.10
2023-04-13T13:47:56.812Z,11.00
2023-04-13T13:50:34.385Z,10.70
2023-04-13T13:53:04.937Z,10.60
2023-04-13T13:55:40.115Z,10.50
2023-04-13T13:58:08.754Z,10.60
2023-04-13T14:00:36.965Z,10.60
2023-04-13T14:03:05.119Z,10.30
2023-04-13T14:05:33.525Z,10.10
2023-04-13T14:08:09.894Z,9.90
2023-04-13T14:10:49.969Z,9.60
2023-04-13T14:13:21.521Z,9.60
2023-04-13T14:15:49.813Z,9.60
2023-04-13T14:18:17.936Z,9.70
2023-04-13T14:20:46.231Z,9.80
2023-04-13T14:23:14.276Z,9.80
2023-04-13T14:25:42.576Z,9.90
2023-04-13T14:28:12.395Z,10.10
2023-04-13T14:30:40.692Z,10.20
2023-04-13T14:33:08.995Z,10.20
2023-04-13T14:35:37.215Z,10.20
2023-04-13T14:38:05.274Z,10.40
2023-04-13T14:40:34.124Z,10.50
2023-04-13T14:43:02.226Z,10.50
2023-04-13T14:45:30.370Z,10.60
2023-04-13T14:47:58.580Z,10.70
2023-04-13T14:50:26.828Z,10.80
2023-04-13T14:52:54.871Z,10.80
2023-04-13T14:55:23.237Z,10.90
2023-04-13T14:57:51.460Z,11.00
2023-04-13T15:00:23.353Z,11.10
2023-04-13T15:02:54.846Z,11.30
2023-04-13T15:05:23.439Z,11.50
2023-04-13T15:07:52.146Z,11.70
2023-04-13T15:10:20.366Z,11.60
2023-04-13T15:12:49.485Z,11.60
2023-04-13T15:15:17.684Z,11.60
2023-04-13T15:17:45.812Z,11.50
2023-04-13T15:20:13.922Z,11.50
2023-04-13T15:22:42.018Z,11.30
2023-04-13T15:25:10.351Z,11.30
2023-04-13T15:27:38.386Z,11.20
2023-04-13T15:30:06.807Z,11.10
2023-04-13T15:32:42.236Z,11.20
2023-04-13T15:35:10.353Z,11.20
2023-04-13T15:37:38.437Z,11.20
2023-04-13T15:40:08.838Z,11.10
2023-04-13T15:42:37.395Z,11.20
2023-04-13T15:45:06.703Z,11.30
2023-04-13T15:47:34.905Z,11.30
2023-04-13T15:50:03.425Z,11.30
2023-04-13T15:52:33.514Z,11.40
2023-04-13T15:55:02.231Z,11.40
2023-04-13T15:57:30.308Z,11.40
2023-04-13T15:59:58.550Z,11.40
2023-04-13T16:02:26.744Z,11.40
2023-04-13T16:04:55.322Z,11.20
2023-04-13T16:07:23.800Z,11.20
2023-04-13T16:09:57.472Z,11.30
2023-04-13T16:12:32.880Z,11.30
2023-04-13T16:15:01.598Z,11.40
2023-04-13T16:17:33.324Z,11.40
2023-04-13T16:20:19.321Z,11.40
2023-04-13T16:22:54.440Z,11.40
2023-04-13T16:25:25.725Z,11.30
2023-04-13T16:27:55.692Z,11.30
2023-04-13T16:30:24.813Z,11.30
2023-04-13T16:32:53.094Z,11.30
2023-04-13T16:35:21.194Z,11.40
2023-04-13T16:37:49.237Z,11.40
2023-04-13T16:40:18.008Z,11.30
2023-04-13T16:42:46.212Z,11.30
2023-04-13T16:45:15.654Z,11.30
2023-04-13T16:47:43.974Z,11.30
2023-04-13T16:50:12.888Z,11.30
2023-04-13T16:52:41.425Z,11.30
2023-04-13T16:55:12.341Z,11.20
2023-04-13T16:57:40.720Z,11.20
2023-04-13T17:00:11.700Z,11.20
2023-04-13T17:02:40.792Z,11.20
2023-04-13T17:05:12.863Z,11.10
2023-04-13T17:07:41.817Z,11.10
2023-04-13T17:10:10.443Z,11.10
2023-04-13T17:12:38.605Z,11.00
2023-04-13T17:15:07.348Z,11.00
2023-04-13T17:17:35.887Z,10.90
2023-04-13T17:20:03.972Z,10.90
2023-04-13T17:22:32.334Z,10.90
2023-04-13T17:25:02.261Z,10.90
2023-04-13T17:27:30.538Z,10.90
2023-04-13T17:29:58.789Z,10.80
2023-04-13T17:32:27.275Z,10.80
2023-04-13T17:34:56.107Z,10.70
2023-04-13T17:37:24.261Z,10.70
2023-04-13T17:39:52.735Z,10.60
2023-04-13T17:42:20.876Z,10.60
2023-04-13T17:44:48.939Z,10.50
2023-04-13T17:47:17.719Z,10.50
2023-04-13T17:49:46.136Z,10.50
2023-04-13T17:52:14.186Z,10.50
2023-04-13T17:54:42.264Z,10.40
2023-04-13T17:57:10.379Z,10.30
2023-04-13T17:59:38.448Z,10.30
2023-04-13T18:02:08.895Z,10.20
2023-04-13T18:04:37.284Z,10.20
2023-04-13T18:07:05.348Z,10.20
2023-04-13T18:09:33.873Z,10.20
2023-04-13T18:12:02.011Z,10.10
2023-04-13T18:14:30.297Z,10.00
2023-04-13T18:16:58.474Z,10.00
2023-04-13T18:19:28.694Z,10.00
2023-04-13T18:21:56.926Z,9.90
2023-04-13T18:24:24.997Z,9.90
2023-04-13T18:26:53.416Z,9.90
2023-04-13T18:29:21.610Z,9.90
2023-04-13T18:31:49.967Z,9.80
2023-04-13T18:34:18.643Z,9.70
2023-04-13T18:36:46.884Z,9.60
2023-04-13T18:39:15.688Z,9.70
2023-04-13T18:41:44.159Z,9.60
2023-04-13T18:44:12.456Z,9.60
2023-04-13T18:46:40.748Z,9.60
2023-04-13T18:49:08.915Z,9.50
2023-04-13T18:51:37.521Z,9.50
2023-04-13T18:54:05.730Z,9.40
2023-04-13T18:56:34.272Z,9.40
2023-04-13T18:59:04.076Z,9.40
2023-04-13T19:01:32.328Z,9.40
2023-04-13T19:04:00.725Z,9.30
2023-04-13T19:06:29.211Z,9.30
2023-04-13T19:08:57.340Z,9.30
2023-04-13T19:11:28.607Z,9.20
2023-04-13T19:13:56.793Z,9.10
2023-04-13T19:16:27.905Z,9.10
2023-04-13T19:18:56.098Z,9.00
2023-04-13T19:21:25.611Z,9.00
2023-04-13T19:23:54.176Z,8.90
2023-04-13T19:26:22.239Z,8.80
2023-04-13T19:28:50.319Z,8.80
2023-04-13T19:31:18.684Z,8.70
2023-04-13T19:33:47.814Z,8.60
2023-04-13T19:36:17.020Z,8.70
2023-04-13T19:38:46.365Z,8.70
2023-04-13T19:41:16.677Z,8.80
2023-04-13T19:43:48.923Z,8.60
2023-04-13T19:46:21.511Z,8.60
2023-04-13T19:48:50.427Z,8.60
2023-04-13T19:51:18.466Z,8.60
2023-04-13T19:53:46.596Z,8.60
2023-04-13T19:56:14.703Z,8.50
2023-04-13T19:58:42.878Z,8.60
2023-04-13T20:01:11.574Z,8.60
2023-04-13T20:03:39.874Z,8.60
2023-04-13T20:06:08.040Z,8.60
2023-04-13T20:08:36.258Z,8.60
2023-04-13T20:11:04.351Z,8.60
2023-04-13T20:13:32.428Z,8.60
2023-04-13T20:16:00.608Z,8.50
2023-04-13T20:18:28.700Z,8.50
2023-04-13T20:20:56.843Z,8.40
2023-04-13T20:23:24.896Z,8.30
2023-04-13T20:25:52.964Z,8.20
2023-04-13T20:28:21.357Z,8.20
2023-04-13T20:30:49.427Z,8.10
2023-04-13T20:33:17.803Z,7.90
2023-04-13T20:35:45.953Z,7.90
2023-04-13T20:38:15.956Z,7.80
2023-04-13T20:40:47.030Z,7.80
2023-04-13T20:43:18.987Z,7.70
2023-04-13T20:45:47.685Z,7.70
2023-04-13T20:50:49.006Z,7.70
2023-04-13T20:53:18.606Z,7.50
2023-04-13T20:55:48.226Z,7.30
2023-04-13T20:58:17.373Z,7.30
2023-04-13T21:00:46.110Z,7.30
2023-04-13T21:03:14.449Z,7.10
2023-04-13T21:05:42.656Z,7.10
2023-04-13T21:08:16.949Z,7.00
2023-04-13T21:10:52.626Z,7.00
2023-04-13T21:13:21.107Z,7.10
2023-04-13T21:15:49.239Z,7.10
2023-04-13T21:18:17.311Z,7.20
2023-04-13T21:20:45.665Z,7.20
2023-04-13T21:23:13.831Z,7.20
2023-04-13T21:25:43.159Z,7.20
2023-04-13T21:28:11.454Z,7.20
2023-04-13T21:30:39.483Z,7.20
2023-04-13T21:33:08.142Z,7.30
2023-04-13T21:35:36.173Z,7.30
2023-04-13T21:38:06.367Z,7.00
2023-04-13T21:40:36.195Z,6.70
2023-04-13T21:43:04.401Z,6.50
2023-04-13T21:45:33.165Z,6.40
2023-04-13T21:48:01.692Z,6.40
2023-04-13T21:50:29.796Z,6.40
2023-04-13T21:52:57.820Z,6.30
2023-04-13T21:55:25.831Z,6.20
2023-04-13T21:57:54.287Z,6.30
2023-04-13T22:00:22.382Z,6.40
2023-04-13T22:02:52.632Z,6.40
2023-04-13T22:05:20.915Z,6.40
2023-04-13T22:07:48.988Z,6.50
2023-04-13T22:10:17.177Z,6.50
2023-04-13T22:12:45.225Z,6.50
2023-04-13T22:15:13.321Z,6.40
2023-04-13T22:17:41.434Z,6.40
2023-04-13T22:20:09.903Z,6.50
2023-04-13T22:22:37.973Z,6.50
2023-04-13T22:25:06.208Z,6.40
2023-04-13T22:27:34.267Z,6.30
2023-04-13T22:30:02.387Z,6.30
2023-04-13T22:32:30.578Z,6.30
2023-04-13T22:34:58.605Z,6.30
2023-04-13T22:37:30.067Z,6.30
2023-04-13T22:39:59.661Z,6.30
2023-04-13T22:42:27.775Z,6.20
2023-04-13T22:44:55.786Z,6.30
2023-04-13T22:47:24.494Z,6.40
2023-04-13T22:49:52.620Z,6.30
2023-04-13T22:52:21.184Z,6.20
2023-04-13T22:54:49.491Z,6.20
2023-04-13T22:57:19.427Z,6.30
2023-04-13T22:59:47.588Z,6.30
2023-04-13T23:02:17.395Z,6.30
2023-04-13T23:04:49.169Z,6.20
2023-04-13T23:07:17.647Z,6.10
2023-04-13T23:09:45.695Z,6.20
2023-04-13T23:12:13.740Z,6.20
2023-04-13T23:14:41.843Z,6.20
2023-04-13T23:17:09.880Z,6.10
2023-04-13T23:19:38.991Z,6.10
2023-04-13T23:22:07.238Z,6.10
2023-04-13T23:24:35.279Z,6.20
2023-04-13T23:27:03.518Z,6.30
2023-04-13T23:29:31.810Z,6.30
2023-04-13T23:31:59.992Z,6.30
2023-04-13T23:34:28.040Z,6.30
2023-04-13T23:36:56.040Z,6.30
2023-04-13T23:39:24.380Z,6.30
2023-04-13T23:41:53.949Z,6.30
2023-04-13T23:44:22.047Z,6.30
2023-04-13T23:46:50.783Z,6.30
2023-04-13T23:49:18.927Z,6.30
2023-04-13T23:51:47.460Z,6.40
2023-04-13T23:54:15.554Z,6.40
2023-04-13T23:56:43.576Z,6.40
2023-04-13T23:59:12.003Z,6.40
